Time;durP1;ratioP1;P1;durP2;ratioP2;P2;SDS_P1;SDS_P2;PMS_P1;PMS_P2;Temp;Humidity;BMP_temperature;BMP_pressure;BME280_temperature;BME280_humidity;BME280_pressure;Samples;Min_cycle;Max_cycle;Signal;HPM_P1;HPM_P2
2023/12/20 00:01:35;;;;;;;1.42;1.02;;;10.80;50.50;;;;;;5072096;28;20200;-52
2023/12/20 00:04:04;;;;;;;1.60;0.98;;;10.90;50.40;;;;;;5071861;28;20200;-50
2023/12/20 00:06:30;;;;;;;1.83;0.73;;;10.90;50.20;;;;;;5071922;28;20576;-50
2023/12/20 00:08:57;;;;;;;0.85;0.40;;;10.90;50.00;;;;;;5054017;28;20164;-49
2023/12/20 00:11:24;;;;;;;1.10;0.80;;;10.90;50.00;;;;;;5071874;28;20561;-50
2023/12/20 00:13:50;;;;;;;1.20;0.80;;;10.90;50.00;;;;;;5071860;28;20255;-49
2023/12/20 00:16:15;;;;;;;0.97;0.60;;;10.90;50.00;;;;;;5071755;28;20292;-54
2023/12/20 00:18:41;;;;;;;1.70;0.90;;;10.70;50.00;;;;;;5071702;28;20433;-49
2023/12/20 00:21:07;;;;;;;2.80;1.67;;;10.70;50.40;;;;;;5071823;28;20406;-58
2023/12/20 00:23:33;;;;;;;1.20;0.97;;;10.70;50.10;;;;;;5071731;28;21006;-57
2023/12/20 00:25:59;;;;;;;1.97;1.20;;;10.80;49.90;;;;;;5071899;28;20991;-53
2023/12/20 00:28:25;;;;;;;0.90;0.57;;;10.80;49.70;;;;;;5071540;28;20238;-53
2023/12/20 00:30:51;;;;;;;1.00;0.50;;;10.80;49.80;;;;;;5071794;28;20255;-51
2023/12/20 00:33:17;;;;;;;1.00;0.87;;;10.70;49.70;;;;;;5071659;28;20691;-57
2023/12/20 00:35:43;;;;;;;3.37;1.73;;;10.60;49.10;;;;;;5071519;28;20962;-50
2023/12/20 00:38:09;;;;;;;1.10;0.97;;;10.50;49.90;;;;;;5071394;28;20425;-52
2023/12/20 00:40:35;;;;;;;1.75;0.93;;;10.40;49.50;;;;;;5071880;28;20756;-51
2023/12/20 00:43:01;;;;;;;1.57;0.40;;;10.40;50.00;;;;;;5071559;28;20899;-57
2023/12/20 00:45:27;;;;;;;0.90;0.50;;;10.40;49.80;;;;;;5071577;28;20797;-56
2023/12/20 00:47:53;;;;;;;0.90;0.50;;;10.50;49.80;;;;;;5071359;28;20823;-50
2023/12/20 00:50:19;;;;;;;0.90;0.55;;;10.30;49.70;;;;;;5071494;28;20173;-56
2023/12/20 00:52:44;;;;;;;1.25;0.68;;;10.20;49.80;;;;;;5071461;28;20537;-54
2023/12/20 00:55:10;;;;;;;1.20;0.73;;;10.30;49.90;;;;;;5072515;28;20550;-51
2023/12/20 00:57:36;;;;;;;0.98;0.60;;;10.40;49.30;;;;;;5075429;28;20637;-51
2023/12/20 01:00:02;;;;;;;1.20;0.90;;;10.40;49.30;;;;;;5075567;28;20173;-55
2023/12/20 01:02:28;;;;;;;0.98;0.50;;;10.40;49.30;;;;;;5075380;28;20176;-51
2023/12/20 01:04:54;;;;;;;1.00;0.63;;;10.50;49.20;;;;;;5075228;28;20260;-52
2023/12/20 01:07:21;;;;;;;1.13;0.73;;;10.50;49.10;;;;;;5074914;28;20370;-55
2023/12/20 01:09:47;;;;;;;1.00;0.70;;;10.60;49.00;;;;;;5075314;28;20490;-49
2023/12/20 01:12:12;;;;;;;0.90;0.50;;;10.60;48.80;;;;;;5075163;28;20602;-53
2023/12/20 01:14:39;;;;;;;0.97;0.63;;;10.60;48.70;;;;;;5075169;28;20239;-53
2023/12/20 01:17:05;;;;;;;1.10;0.75;;;10.50;48.60;;;;;;5074921;28;20505;-47
2023/12/20 01:19:31;;;;;;;1.35;0.60;;;10.40;48.60;;;;;;5075109;28;20177;-48
2023/12/20 01:21:57;;;;;;;1.33;0.70;;;10.40;48.80;;;;;;5075064;28;20238;-55
2023/12/20 01:24:23;;;;;;;1.30;0.65;;;10.20;49.40;;;;;;5074985;28;20243;-49
2023/12/20 01:26:49;;;;;;;0.80;0.30;;;10.10;49.80;;;;;;5074855;28;20193;-48
2023/12/20 01:29:15;;;;;;;1.00;0.57;;;10.10;49.90;;;;;;5074691;28;20673;-50
2023/12/20 01:31:41;;;;;;;0.90;0.60;;;10.10;49.80;;;;;;5074874;28;20179;-50
2023/12/20 01:34:07;;;;;;;1.10;0.83;;;10.10;49.70;;;;;;5074810;28;20259;-48
2023/12/20 01:36:33;;;;;;;1.00;0.50;;;10.00;50.40;;;;;;5074537;28;20446;-53
2023/12/20 01:38:59;;;;;;;0.90;0.40;;;9.90;50.00;;;;;;5074532;28;20414;-54
2023/12/20 01:41:24;;;;;;;1.73;1.20;;;10.00;49.90;;;;;;5074538;28;20407;-49
2023/12/20 01:43:50;;;;;;;0.87;0.43;;;9.90;50.20;;;;;;5074639;28;20257;-52
2023/12/20 01:46:17;;;;;;;4.00;0.90;;;10.00;50.00;;;;;;5074566;28;20189;-55
2023/12/20 01:48:43;;;;;;;0.93;0.63;;;10.00;49.80;;;;;;5074498;28;20881;-49
2023/12/20 01:51:10;;;;;;;1.52;0.73;;;9.90;49.90;;;;;;5074352;28;20545;-50
2023/12/20 01:53:37;;;;;;;0.95;0.70;;;10.00;49.90;;;;;;5074397;28;20180;-54
2023/12/20 01:56:03;;;;;;;3.67;0.90;;;10.00;49.10;;;;;;5074192;28;20758;-50
2023/12/20 01:58:29;;;;;;;1.23;0.70;;;9.90;49.90;;;;;;5074157;28;20172;-54
2023/12/20 02:00:56;;;;;;;0.95;0.63;;;9.90;49.90;;;;;;5074610;28;20538;-53
2023/12/20 02:03:22;;;;;;;0.80;0.40;;;9.90;49.70;;;;;;5074259;28;20600;-47
2023/12/20 02:05:48;;;;;;;0.90;0.47;;;9.90;49.70;;;;;;5073969;28;20200;-54
2023/12/20 02:08:13;;;;;;;0.90;0.30;;;9.90;49.50;;;;;;5073999;28;20516;-51
2023/12/20 02:10:40;;;;;;;1.33;1.00;;;9.80;49.70;;;;;;5074072;28;20403;-49
2023/12/20 02:13:06;;;;;;;0.90;0.55;;;9.80;49.70;;;;;;5074085;28;20264;-55
2023/12/20 02:15:32;;;;;;;1.10;0.40;;;9.90;50.00;;;;;;5074114;28;20279;-49
2023/12/20 02:17:58;;;;;;;0.87;0.43;;;9.90;49.40;;;;;;5073993;28;20418;-50
2023/12/20 02:20:24;;;;;;;0.93;0.55;;;9.80;49.90;;;;;;5073899;28;20415;-49
2023/12/20 02:22:50;;;;;;;0.90;0.50;;;9.80;49.50;;;;;;5073900;28;20181;-48
2023/12/20 02:25:16;;;;;;;1.20;0.83;;;9.80;49.60;;;;;;5073804;28;20600;-55
2023/12/20 02:27:42;;;;;;;0.90;0.75;;;9.90;49.50;;;;;;5073687;28;20407;-47
2023/12/20 02:30:08;;;;;;;0.80;0.30;;;9.80;49.40;;;;;;5073867;28;20610;-48
2023/12/20 02:32:34;;;;;;;0.80;0.20;;;9.80;49.40;;;;;;5073688;28;20196;-53
2023/12/20 02:35:00;;;;;;;0.80;0.20;;;9.80;49.30;;;;;;5073573;28;20240;-47
2023/12/20 02:37:26;;;;;;;1.00;0.60;;;9.80;49.30;;;;;;5073489;28;20413;-53
2023/12/20 02:39:52;;;;;;;0.90;0.60;;;9.90;49.40;;;;;;5073586;28;20415;-54
2023/12/20 02:42:18;;;;;;;0.90;0.57;;;9.90;49.00;;;;;;5073506;28;20184;-49
2023/12/20 02:44:43;;;;;;;0.90;0.53;;;9.90;49.10;;;;;;5073353;28;20465;-51
2023/12/20 02:47:09;;;;;;;0.90;0.40;;;9.90;49.00;;;;;;5073108;28;20419;-52
2023/12/20 02:49:35;;;;;;;0.90;0.60;;;9.90;49.10;;;;;;5073376;28;20176;-54
2023/12/20 02:52:01;;;;;;;1.23;0.57;;;9.90;50.00;;;;;;5073348;28;21004;-48
2023/12/20 02:54:27;;;;;;;0.90;0.40;;;10.00;49.10;;;;;;5073209;28;20177;-49
2023/12/20 02:56:53;;;;;;;1.20;1.00;;;10.10;48.90;;;;;;5073136;28;20438;-54
2023/12/20 02:59:19;;;;;;;0.90;0.40;;;10.00;48.50;;;;;;5073170;28;20522;-49
2023/12/20 03:01:45;;;;;;;0.80;0.30;;;10.00;48.80;;;;;;5073192;28;20614;-47
2023/12/20 03:04:12;;;;;;;0.82;0.40;;;10.10;49.00;;;;;;5072833;28;20777;-51
2023/12/20 03:06:38;;;;;;;1.92;0.82;;;10.10;48.70;;;;;;5072979;28;20245;-47
2023/12/20 03:09:04;;;;;;;0.90;0.50;;;10.00;48.50;;;;;;5072754;28;20176;-51
2023/12/20 03:11:30;;;;;;;0.90;0.40;;;9.80;49.10;;;;;;5072970;28;20187;-49
2023/12/20 03:13:57;;;;;;;0.80;0.30;;;9.90;49.10;;;;;;5072797;28;20180;-51
2023/12/20 03:16:23;;;;;;;0.85;0.45;;;9.80;49.20;;;;;;5072749;28;20220;-51
2023/12/20 03:18:49;;;;;;;1.00;0.50;;;9.90;49.20;;;;;;5072132;28;20664;-49
2023/12/20 03:21:15;;;;;;;0.90;0.50;;;9.90;49.40;;;;;;5072679;28;20216;-52
2023/12/20 03:23:41;;;;;;;0.90;0.50;;;9.90;49.30;;;;;;5072578;28;20490;-47
2023/12/20 03:26:08;;;;;;;0.90;0.40;;;9.80;49.50;;;;;;5072499;28;20514;-55
2023/12/20 03:28:34;;;;;;;0.90;0.52;;;9.70;49.70;;;;;;5072450;28;20661;-49
2023/12/20 03:30:59;;;;;;;1.00;0.77;;;9.70;49.80;;;;;;5072514;28;20255;-50
2023/12/20 03:33:25;;;;;;;0.90;0.60;;;9.80;49.90;;;;;;5072655;28;20262;-52
2023/12/20 03:35:51;;;;;;;0.90;0.30;;;9.70;50.10;;;;;;5072448;28;20450;-49
2023/12/20 03:38:17;;;;;;;0.90;0.47;;;9.70;50.30;;;;;;5072241;28;20453;-52
2023/12/20 03:40:43;;;;;;;0.90;0.50;;;9.60;50.30;;;;;;5072404;28;20180;-54
2023/12/20 03:43:09;;;;;;;0.80;0.30;;;9.70;50.20;;;;;;5072075;28;20211;-48
2023/12/20 03:45:35;;;;;;;0.90;0.60;;;9.70;50.40;;;;;;5072134;28;20280;-53
2023/12/20 03:48:01;;;;;;;0.90;0.50;;;9.60;50.30;;;;;;5072114;28;20423;-48
2023/12/20 03:50:27;;;;;;;0.80;0.33;;;9.60;50.40;;;;;;5072327;28;20172;-47
2023/12/20 03:52:53;;;;;;;0.90;0.50;;;9.60;50.60;;;;;;5072407;28;20875;-51
2023/12/20 03:55:19;;;;;;;0.90;0.40;;;9.60;50.40;;;;;;5072023;28;20431;-49
2023/12/20 03:57:45;;;;;;;0.80;0.40;;;9.70;50.20;;;;;;5071981;28;20602;-47
2023/12/20 04:00:11;;;;;;;0.90;0.63;;;9.80;49.80;;;;;;5071968;28;20418;-54
2023/12/20 04:02:41;;;;;;;0.95;0.60;;;9.80;49.90;;;;;;5072222;28;20413;-52
2023/12/20 04:05:08;;;;;;;0.90;0.50;;;9.90;49.80;;;;;;5072103;28;20250;-47
2023/12/20 04:07:34;;;;;;;0.93;0.60;;;9.90;49.90;;;;;;5072027;28;20706;-53
2023/12/20 04:10:00;;;;;;;0.90;0.40;;;10.00;49.70;;;;;;5072062;28;20271;-47
2023/12/20 04:12:28;;;;;;;1.40;1.08;;;10.00;49.40;;;;;;5097697;22;20477;-51
2023/12/20 04:14:54;;;;;;;0.80;0.30;;;10.10;49.50;;;;;;5013171;28;20186;-50
2023/12/20 04:17:20;;;;;;;0.90;0.57;;;10.10;49.40;;;;;;5012780;28;20551;-47
2023/12/20 04:19:46;;;;;;;0.90;0.50;;;10.10;49.10;;;;;;5013206;28;20894;-48
2023/12/20 04:22:12;;;;;;;0.80;0.30;;;10.10;49.20;;;;;;5022123;28;20211;-49
2023/12/20 04:24:37;;;;;;;1.03;0.80;;;10.10;49.30;;;;;;5032730;28;20471;-52
2023/12/20 04:27:03;;;;;;;0.90;0.40;;;10.20;49.20;;;;;;5032499;28;20421;-48
2023/12/20 04:29:29;;;;;;;1.38;0.73;;;10.10;49.30;;;;;;5032465;28;20409;-47
2023/12/20 04:31:55;;;;;;;0.90;0.70;;;10.10;49.40;;;;;;5033052;28;20236;-51
2023/12/20 04:34:22;;;;;;;0.90;0.57;;;10.10;49.60;;;;;;5032549;28;20976;-50
2023/12/20 04:36:48;;;;;;;0.82;0.40;;;10.00;49.80;;;;;;5032962;28;20401;-47
2023/12/20 04:39:15;;;;;;;0.90;0.60;;;10.10;49.70;;;;;;5032277;28;20204;-50
2023/12/20 04:41:40;;;;;;;0.95;0.60;;;10.10;49.80;;;;;;5019917;28;20417;-50
2023/12/20 04:44:06;;;;;;;0.90;0.60;;;10.10;49.60;;;;;;5012915;28;20279;-48
2023/12/20 04:46:32;;;;;;;1.20;0.53;;;10.20;49.40;;;;;;5013202;28;20643;-49
2023/12/20 04:48:58;;;;;;;0.80;0.37;;;10.20;49.50;;;;;;5012584;28;20779;-49
2023/12/20 04:51:24;;;;;;;0.90;0.60;;;10.10;49.60;;;;;;5012699;28;20747;-47
2023/12/20 04:53:50;;;;;;;1.00;0.70;;;10.10;49.70;;;;;;4994994;28;20451;-48
2023/12/20 04:56:16;;;;;;;1.00;0.70;;;10.10;49.60;;;;;;5022367;28;20608;-49
2023/12/20 04:58:43;;;;;;;1.10;1.00;;;10.10;49.70;;;;;;5032219;28;20428;-50
2023/12/20 05:01:09;;;;;;;1.00;0.70;;;10.10;49.60;;;;;;5032173;28;20467;-50
2023/12/20 05:03:35;;;;;;;0.80;0.40;;;10.20;49.50;;;;;;5014639;28;20200;-47
2023/12/20 05:06:01;;;;;;;0.90;0.50;;;10.20;49.50;;;;;;5032288;28;20178;-50
2023/12/20 05:08:27;;;;;;;1.13;0.70;;;10.30;49.50;;;;;;5032000;28;20181;-51
2023/12/20 05:10:54;;;;;;;0.90;0.50;;;10.30;49.50;;;;;;5017826;28;20176;-47
2023/12/20 05:13:20;;;;;;;0.90;0.43;;;10.30;49.50;;;;;;5030753;28;20501;-48
2023/12/20 05:15:46;;;;;;;0.90;0.45;;;10.30;49.40;;;;;;5032514;28;20186;-50
2023/12/20 05:18:13;;;;;;;0.98;0.65;;;10.40;50.00;;;;;;5032025;28;20185;-51
2023/12/20 05:20:39;;;;;;;0.80;0.20;;;10.40;49.20;;;;;;5031887;28;20200;-47
2023/12/20 05:23:06;;;;;;;0.90;0.55;;;10.50;49.10;;;;;;5015582;28;20826;-51
2023/12/20 05:25:32;;;;;;;0.98;0.70;;;10.50;49.10;;;;;;5012686;28;20187;-51
2023/12/20 05:27:57;;;;;;;0.95;0.65;;;10.50;48.90;;;;;;5012187;28;20647;-46
2023/12/20 05:30:23;;;;;;;0.90;0.60;;;10.50;48.90;;;;;;5012263;28;20237;-48
2023/12/20 05:32:49;;;;;;;0.80;0.50;;;10.50;49.00;;;;;;5012288;28;20456;-48
2023/12/20 05:35:15;;;;;;;0.80;0.27;;;10.50;49.20;;;;;;4994534;28;20186;-49
2023/12/20 05:37:42;;;;;;;0.90;0.50;;;10.50;49.10;;;;;;5011922;28;20409;-51
2023/12/20 05:40:10;;;;;;;1.00;0.60;;;10.50;49.30;;;;;;4994709;28;20186;-46
2023/12/20 05:42:37;;;;;;;0.90;0.50;;;10.50;49.10;;;;;;5015470;28;20248;-47
2023/12/20 05:45:04;;;;;;;2.78;0.55;;;10.40;49.30;;;;;;5015484;28;20214;-50
2023/12/20 05:47:30;;;;;;;0.90;0.45;;;10.40;49.40;;;;;;5015602;28;20171;-47
2023/12/20 05:49:55;;;;;;;0.80;0.30;;;10.30;49.70;;;;;;5015900;28;20666;-47
2023/12/20 05:52:21;;;;;;;0.83;0.50;;;10.20;50.00;;;;;;5015557;28;20437;-50
2023/12/20 05:54:47;;;;;;;1.00;0.73;;;10.20;50.10;;;;;;5015686;28;20416;-50
2023/12/20 05:57:14;;;;;;;0.90;0.50;;;10.20;50.00;;;;;;5015317;28;20422;-47
2023/12/20 05:59:40;;;;;;;0.80;0.30;;;10.20;50.20;;;;;;5015598;28;20289;-52
2023/12/20 06:02:06;;;;;;;0.80;0.35;;;10.20;50.00;;;;;;5031587;28;20659;-47
2023/12/20 06:04:32;;;;;;;1.15;0.70;;;10.30;50.00;;;;;;5034932;28;20706;-47
2023/12/20 06:06:59;;;;;;;1.00;0.60;;;10.30;50.00;;;;;;5034875;28;20174;-51
2023/12/20 06:09:27;;;;;;;1.95;0.88;;;10.30;50.00;;;;;;5016063;28;20182;-47
2023/12/20 06:11:53;;;;;;;2.03;0.85;;;10.30;49.90;;;;;;5029616;28;20228;-48
2023/12/20 06:14:19;;;;;;;1.05;0.90;;;10.40;49.80;;;;;;5034962;28;20190;-52
2023/12/20 06:16:46;;;;;;;1.00;0.60;;;10.40;50.00;;;;;;5034666;28;20172;-48
2023/12/20 06:19:11;;;;;;;1.10;0.77;;;10.40;50.00;;;;;;5034214;28;20178;-49
2023/12/20 06:21:37;;;;;;;1.10;1.00;;;10.40;49.90;;;;;;5034660;28;20185;-50
2023/12/20 06:24:04;;;;;;;1.20;1.03;;;10.40;50.00;;;;;;5034386;28;20488;-47
2023/12/20 06:26:30;;;;;;;0.80;0.40;;;10.30;50.10;;;;;;5034655;28;20411;-50
2023/12/20 06:28:55;;;;;;;0.90;0.60;;;10.40;50.00;;;;;;5019424;28;20648;-50
2023/12/20 06:31:21;;;;;;;0.90;0.43;;;10.40;49.80;;;;;;5016789;28;20182;-50
2023/12/20 06:33:49;;;;;;;0.80;0.30;;;10.50;49.90;;;;;;5034130;28;20436;-49
2023/12/20 06:36:15;;;;;;;0.90;0.50;;;10.50;49.70;;;;;;5034349;28;20456;-50
2023/12/20 06:38:42;;;;;;;0.80;0.40;;;10.50;49.70;;;;;;5034079;28;20659;-49
2023/12/20 06:41:08;;;;;;;1.00;0.60;;;10.50;49.80;;;;;;5034139;28;20416;-52
2023/12/20 06:43:34;;;;;;;1.00;0.83;;;10.50;50.00;;;;;;5034127;28;20625;-47
2023/12/20 06:46:02;;;;;;;0.87;0.37;;;10.40;50.00;;;;;;5034340;28;20437;-52
2023/12/20 06:48:28;;;;;;;0.90;0.57;;;10.30;50.30;;;;;;5034223;28;20405;-51
2023/12/20 06:50:54;;;;;;;0.90;0.50;;;10.30;51.00;;;;;;5034373;28;20178;-46
2023/12/20 06:53:20;;;;;;;1.00;0.50;;;10.20;51.30;;;;;;5033208;28;20490;-49
2023/12/20 06:55:46;;;;;;;0.90;0.40;;;10.20;51.30;;;;;;5034432;28;20415;-52
2023/12/20 06:58:12;;;;;;;1.57;0.50;;;10.20;51.10;;;;;;5034023;28;20671;-48
2023/12/20 07:00:38;;;;;;;0.90;0.57;;;10.20;51.20;;;;;;5030111;28;20415;-48
2023/12/20 07:03:04;;;;;;;1.00;0.90;;;10.30;50.90;;;;;;5014190;28;21032;-52
2023/12/20 07:05:29;;;;;;;1.52;0.80;;;10.30;51.00;;;;;;5014106;28;20926;-48
2023/12/20 07:07:55;;;;;;;0.83;0.33;;;10.30;50.80;;;;;;5013875;28;20233;-48
2023/12/20 07:10:21;;;;;;;0.90;0.43;;;10.40;50.70;;;;;;5013876;28;20424;-48
2023/12/20 07:12:48;;;;;;;0.90;0.50;;;10.40;50.50;;;;;;5027400;28;20453;-49
2023/12/20 07:15:14;;;;;;;0.90;0.60;;;10.40;50.40;;;;;;5033261;28;20474;-49
2023/12/20 07:17:40;;;;;;;1.57;1.37;;;10.50;50.40;;;;;;5033424;28;20182;-47
2023/12/20 07:20:09;;;;;;;0.93;0.50;;;10.50;50.30;;;;;;5033266;28;20499;-51
2023/12/20 07:22:36;;;;;;;1.13;0.95;;;10.50;50.20;;;;;;5033537;28;20416;-51
2023/12/20 07:25:02;;;;;;;1.10;0.60;;;10.50;50.10;;;;;;5033365;28;20283;-46
2023/12/20 07:27:27;;;;;;;1.75;1.35;;;10.50;50.20;;;;;;5033160;28;20631;-52
2023/12/20 07:29:53;;;;;;;0.80;0.33;;;10.50;50.10;;;;;;5033282;28;20181;-54
2023/12/20 07:32:19;;;;;;;1.60;0.93;;;10.50;50.10;;;;;;5033256;28;20437;-45
2023/12/20 07:34:45;;;;;;;0.87;0.40;;;10.50;50.10;;;;;;5033254;28;20424;-49
2023/12/20 07:37:11;;;;;;;0.80;0.20;;;10.50;50.00;;;;;;5032968;28;20430;-51
2023/12/20 07:39:41;;;;;;;1.00;0.50;;;10.50;50.00;;;;;;5033127;28;20408;-48
2023/12/20 07:42:08;;;;;;;0.90;0.50;;;10.40;50.20;;;;;;5033007;28;20181;-55
2023/12/20 07:44:35;;;;;;;1.00;0.73;;;10.40;50.20;;;;;;5021130;28;20206;-51
2023/12/20 07:47:01;;;;;;;0.95;0.68;;;10.40;50.40;;;;;;5013527;28;20233;-47
2023/12/20 07:49:27;;;;;;;0.85;0.38;;;10.20;50.70;;;;;;5013576;28;20877;-47
2023/12/20 07:51:53;;;;;;;0.97;0.63;;;10.10;50.90;;;;;;5013784;28;20179;-52
2023/12/20 07:54:19;;;;;;;0.97;0.53;;;10.20;50.80;;;;;;5013452;28;20418;-48
2023/12/20 07:56:46;;;;;;;0.90;0.50;;;10.20;50.40;;;;;;5013327;28;20413;-48
2023/12/20 07:59:12;;;;;;;1.85;0.93;;;10.10;50.20;;;;;;5012685;28;20417;-52
2023/12/20 08:01:38;;;;;;;0.80;0.30;;;10.10;50.40;;;;;;5013043;28;20182;-47
2023/12/20 08:04:04;;;;;;;1.60;1.07;;;10.10;50.20;;;;;;5012465;28;20457;-46
2023/12/20 08:06:30;;;;;;;0.90;0.45;;;10.00;50.10;;;;;;5011693;28;20410;-54
2023/12/20 08:08:57;;;;;;;1.13;0.77;;;9.90;50.40;;;;;;5012767;28;20563;-53
2023/12/20 08:11:22;;;;;;;2.00;1.77;;;9.90;50.40;;;;;;5012697;28;20425;-47
2023/12/20 08:13:48;;;;;;;1.60;1.10;;;9.90;50.40;;;;;;5012724;28;20305;-50
2023/12/20 08:16:17;;;;;;;1.10;0.80;;;9.80;50.60;;;;;;5012752;28;20421;-47
2023/12/20 08:18:43;;;;;;;0.90;0.43;;;10.00;50.60;;;;;;5012493;28;20447;-50
2023/12/20 08:21:09;;;;;;;0.80;0.30;;;10.00;50.40;;;;;;5012762;28;20209;-48
2023/12/20 08:23:35;;;;;;;1.40;1.27;;;10.20;50.10;;;;;;5012410;28;20222;-49
2023/12/20 08:26:08;;;;;;;1.80;1.17;;;10.30;49.50;;;;;;5012438;28;20413;-52
2023/12/20 08:28:34;;;;;;;1.23;0.38;;;10.20;49.80;;;;;;5012448;28;20693;-47
2023/12/20 08:31:00;;;;;;;5.00;1.90;;;10.40;49.80;;;;;;5012781;28;20237;-48
2023/12/20 08:33:26;;;;;;;1.77;0.75;;;10.40;49.20;;;;;;5012084;28;20206;-50
2023/12/20 08:35:52;;;;;;;1.30;1.13;;;10.40;49.20;;;;;;5018456;28;20186;-47
2023/12/20 08:38:18;;;;;;;1.37;1.27;;;10.50;48.50;;;;;;5031924;28;20417;-47
2023/12/20 08:40:44;;;;;;;0.90;0.68;;;10.60;49.20;;;;;;5031915;28;20404;-51
2023/12/20 08:43:10;;;;;;;0.90;0.40;;;10.70;48.80;;;;;;5014143;28;20198;-48
2023/12/20 08:45:38;;;;;;;1.35;1.02;;;10.90;49.00;;;;;;5031862;28;20655;-47
2023/12/20 08:48:05;;;;;;;2.08;1.10;;;11.20;48.40;;;;;;5031648;28;20189;-49
2023/12/20 08:50:31;;;;;;;1.10;0.65;;;11.30;46.70;;;;;;5031672;28;20193;-47
2023/12/20 08:52:57;;;;;;;1.65;0.80;;;11.50;47.70;;;;;;5031674;28;20197;-48
2023/12/20 08:55:23;;;;;;;1.27;0.80;;;11.80;46.80;;;;;;5031531;28;20189;-54
2023/12/20 08:57:50;;;;;;;0.90;0.50;;;12.00;44.40;;;;;;5031457;28;20408;-47
2023/12/20 09:00:16;;;;;;;1.00;0.40;;;11.90;43.70;;;;;;5031662;28;20775;-47
2023/12/20 09:02:42;;;;;;;3.55;0.82;;;11.70;43.60;;;;;;5031461;28;20202;-53
2023/12/20 09:05:08;;;;;;;3.00;0.70;;;11.60;43.40;;;;;;5031484;28;20452;-47
2023/12/20 09:07:34;;;;;;;1.65;1.00;;;11.40;43.10;;;;;;5031517;28;20412;-46
2023/12/20 09:10:00;;;;;;;1.17;0.90;;;11.30;43.90;;;;;;5031518;28;20183;-53
2023/12/20 09:12:27;;;;;;;0.90;0.70;;;11.20;43.80;;;;;;5031342;28;20700;-48
2023/12/20 09:14:53;;;;;;;1.15;0.70;;;11.20;43.80;;;;;;5031606;28;20455;-47
2023/12/20 09:17:20;;;;;;;1.05;0.73;;;11.20;42.80;;;;;;5034142;28;20190;-50
2023/12/20 09:19:46;;;;;;;1.00;0.63;;;11.30;43.30;;;;;;5035367;28;20253;-53
2023/12/20 09:22:12;;;;;;;3.30;1.87;;;11.50;42.40;;;;;;5035031;28;20715;-47
2023/12/20 09:24:39;;;;;;;1.10;0.95;;;11.80;43.40;;;;;;5035020;28;20432;-52
2023/12/20 09:27:05;;;;;;;0.90;0.60;;;12.10;43.00;;;;;;5034978;28;20308;-49
2023/12/20 09:29:31;;;;;;;0.90;0.40;;;12.30;39.80;;;;;;5035161;28;20177;-52
2023/12/20 09:31:57;;;;;;;1.00;0.80;;;12.40;40.20;;;;;;5035017;28;20189;-52
2023/12/20 09:34:24;;;;;;;1.00;0.70;;;12.50;39.30;;;;;;5035113;28;20177;-46
2023/12/20 09:36:50;;;;;;;1.30;0.88;;;12.30;39.40;;;;;;5035012;28;20902;-49
2023/12/20 09:39:20;;;;;;;1.83;1.10;;;12.20;40.00;;;;;;5034609;28;20177;-52
2023/12/20 09:41:59;;;;;;;1.00;0.60;;;12.10;40.80;;;;;;5034741;28;20508;-46
2023/12/20 09:44:25;;;;;;;0.95;0.50;;;12.00;40.30;;;;;;5034713;28;20489;-53
2023/12/20 09:46:52;;;;;;;1.40;1.13;;;12.40;40.40;;;;;;5034722;28;20174;-53
2023/12/20 09:49:19;;;;;;;1.13;0.70;;;12.50;40.30;;;;;;5017084;28;20531;-47
2023/12/20 09:51:47;;;;;;;2.25;0.68;;;12.70;40.30;;;;;;5034638;28;20257;-53
2023/12/20 09:54:17;;;;;;;1.00;0.73;;;12.80;39.20;;;;;;5034829;28;20213;-48
2023/12/20 09:56:44;;;;;;;1.10;0.70;;;12.80;39.50;;;;;;5034669;28;20186;-50
2023/12/20 09:59:10;;;;;;;3.95;0.65;;;12.80;39.10;;;;;;5034474;28;20606;-45
2023/12/20 10:01:38;;;;;;;1.20;1.07;;;12.80;39.70;;;;;;5034433;28;20269;-51
2023/12/20 10:04:10;;;;;;;2.00;0.70;;;13.10;37.90;;;;;;5034201;28;20452;-47
2023/12/20 10:06:36;;;;;;;1.42;0.55;;;13.10;37.20;;;;;;5034383;28;20261;-54
2023/12/20 10:09:04;;;;;;;3.75;0.90;;;12.60;37.90;;;;;;5034194;28;20178;-54
2023/12/20 10:11:30;;;;;;;1.20;0.75;;;12.20;38.90;;;;;;5034196;28;20670;-48
2023/12/20 10:14:02;;;;;;;1.00;0.65;;;12.30;39.20;;;;;;5034095;28;20298;-50
2023/12/20 10:16:29;;;;;;;2.55;1.75;;;12.70;38.40;;;;;;5034087;28;20249;-49
2023/12/20 10:18:55;;;;;;;0.90;0.40;;;12.60;38.10;;;;;;5033935;28;20182;-48
2023/12/20 10:21:22;;;;;;;1.70;0.70;;;12.80;38.50;;;;;;5034125;28;20185;-49
2023/12/20 10:23:52;;;;;;;1.10;0.70;;;13.30;37.70;;;;;;5033906;28;20221;-48
2023/12/20 10:26:25;;;;;;;3.25;1.27;;;14.00;36.50;;;;;;5034024;28;20206;-52
2023/12/20 10:28:55;;;;;;;1.50;0.60;;;14.30;35.40;;;;;;5033845;28;20185;-49
2023/12/20 10:31:31;;;;;;;1.45;0.68;;;14.00;35.00;;;;;;5034127;28;20210;-51
2023/12/20 10:33:58;;;;;;;1.00;0.55;;;13.80;34.80;;;;;;5034194;28;20560;-48
2023/12/20 10:36:30;;;;;;;1.20;0.80;;;13.20;36.70;;;;;;5033811;28;20257;-45
2023/12/20 10:38:59;;;;;;;1.42;1.15;;;13.40;37.50;;;;;;5033709;28;20178;-52
2023/12/20 10:41:30;;;;;;;0.90;0.30;;;13.70;35.40;;;;;;5033679;28;20551;-48
2023/12/20 10:44:04;;;;;;;1.33;0.73;;;13.70;35.40;;;;;;5033667;28;20215;-53
2023/12/20 10:46:34;;;;;;;1.00;0.63;;;13.60;35.10;;;;;;5033623;28;20529;-52
2023/12/20 10:49:02;;;;;;;1.00;0.63;;;13.10;35.60;;;;;;5033796;28;20294;-46
2023/12/20 10:51:30;;;;;;;1.73;1.07;;;13.20;37.10;;;;;;5033528;28;20174;-52
2023/12/20 10:53:56;;;;;;;1.30;1.02;;;13.60;36.70;;;;;;5033418;28;20459;-53
2023/12/20 10:56:25;;;;;;;1.10;1.00;;;13.90;35.00;;;;;;5033430;28;20236;-49
2023/12/20 10:58:51;;;;;;;1.20;0.65;;;13.60;35.60;;;;;;5033289;28;20541;-51
2023/12/20 11:01:18;;;;;;;1.00;0.63;;;13.70;34.20;;;;;;5033486;28;20257;-47
2023/12/20 11:03:53;;;;;;;3.30;0.88;;;13.50;34.30;;;;;;5033117;28;20213;-50
2023/12/20 11:06:41;;;;;;;1.85;1.05;;;13.40;35.20;;;;;;5033341;28;20169;-49
2023/12/20 11:09:36;;;;;;;0.98;0.65;;;13.80;34.90;;;;;;5033271;28;20178;-46
2023/12/20 11:12:39;;;;;;;1.10;0.70;;;14.00;34.40;;;;;;5030253;28;20293;-52
2023/12/20 11:15:07;;;;;;;1.10;0.73;;;14.00;34.30;;;;;;5033018;28;20201;-47
2023/12/20 11:17:33;;;;;;;1.10;0.65;;;13.80;33.50;;;;;;5032968;28;20547;-48
2023/12/20 11:20:02;;;;;;;1.27;0.98;;;13.40;34.40;;;;;;5033055;28;20178;-54
2023/12/20 11:22:31;;;;;;;1.17;0.85;;;13.10;35.60;;;;;;5032780;28;20280;-48
2023/12/20 11:25:10;;;;;;;1.00;0.60;;;12.80;35.80;;;;;;5032885;28;20584;-47
2023/12/20 11:27:40;;;;;;;1.48;0.85;;;12.50;36.30;;;;;;5032771;28;20170;-54
2023/12/20 11:30:08;;;;;;;2.08;0.90;;;12.20;36.20;;;;;;5033004;28;20272;-49
2023/12/20 11:32:37;;;;;;;1.00;0.60;;;12.20;36.80;;;;;;5032734;28;20276;-51
2023/12/20 11:35:10;;;;;;;1.30;0.90;;;12.20;36.80;;;;;;5032682;28;20183;-50
2023/12/20 11:37:37;;;;;;;1.90;0.55;;;12.10;36.80;;;;;;5032561;28;20227;-47
2023/12/20 11:40:09;;;;;;;1.10;0.70;;;11.90;37.00;;;;;;5032053;28;20185;-53
2023/12/20 11:42:43;;;;;;;1.00;0.68;;;11.50;37.40;;;;;;5032446;28;20236;-48
2023/12/20 11:45:21;;;;;;;1.63;1.05;;;11.30;38.30;;;;;;5032631;28;20339;-49
2023/12/20 11:47:51;;;;;;;1.10;0.70;;;11.30;38.70;;;;;;5032397;28;20671;-51
2023/12/20 11:50:18;;;;;;;1.00;0.50;;;11.10;39.00;;;;;;5032260;28;20497;-47
2023/12/20 11:52:44;;;;;;;1.00;0.63;;;11.20;38.30;;;;;;5032508;28;20197;-50
2023/12/20 11:55:10;;;;;;;1.30;0.70;;;11.40;37.80;;;;;;5032318;28;20182;-53
2023/12/20 11:57:36;;;;;;;1.00;0.70;;;11.70;38.10;;;;;;5032068;28;20416;-48
2023/12/20 12:00:06;;;;;;;1.05;0.70;;;11.90;37.30;;;;;;5032412;28;20185;-48
2023/12/20 12:02:32;;;;;;;0.90;0.60;;;12.20;37.20;;;;;;5032175;28;20212;-51
2023/12/20 12:04:59;;;;;;;0.90;0.50;;;12.30;36.20;;;;;;5032044;28;20535;-46
2023/12/20 12:07:25;;;;;;;2.00;0.90;;;12.60;36.90;;;;;;5031979;28;20275;-52
2023/12/20 12:09:51;;;;;;;1.10;0.80;;;12.90;35.80;;;;;;5032423;28;20448;-46
2023/12/20 12:12:19;;;;;;;1.75;1.38;;;13.30;35.60;;;;;;5031784;28;20519;-54
2023/12/20 12:14:45;;;;;;;1.30;1.00;;;13.60;34.10;;;;;;5032057;28;20178;-54
2023/12/20 12:17:12;;;;;;;1.00;0.60;;;13.90;33.50;;;;;;5031940;28;20174;-49
2023/12/20 12:19:42;;;;;;;1.33;1.13;;;14.10;32.30;;;;;;5032155;28;20231;-55
2023/12/20 12:22:14;;;;;;;1.05;0.75;;;14.30;31.60;;;;;;5032221;28;20201;-49
2023/12/20 12:24:43;;;;;;;1.00;0.60;;;14.30;32.40;;;;;;5032233;28;20623;-48
2023/12/20 12:27:09;;;;;;;1.80;0.93;;;14.70;31.30;;;;;;5031954;28;20178;-53
2023/12/20 12:29:36;;;;;;;1.65;0.95;;;15.10;30.80;;;;;;5032053;28;20174;-49
2023/12/20 12:32:09;;;;;;;1.40;1.08;;;15.20;30.30;;;;;;5032050;28;20174;-50
2023/12/20 12:34:36;;;;;;;1.20;1.00;;;15.70;29.50;;;;;;5031870;28;20643;-55
2023/12/20 12:37:03;;;;;;;1.38;1.05;;;16.60;28.20;;;;;;5031971;28;20189;-48
2023/12/20 12:39:30;;;;;;;1.20;0.82;;;17.20;27.70;;;;;;5032032;28;20174;-47
2023/12/20 12:41:57;;;;;;;1.25;0.75;;;17.90;26.00;;;;;;5031815;28;20236;-56
2023/12/20 12:44:26;;;;;;;2.47;0.93;;;18.10;26.90;;;;;;5031561;28;20285;-47
2023/12/20 12:46:53;;;;;;;1.23;0.60;;;17.70;25.50;;;;;;5031780;28;20181;-50